sensor_id;sensor_type;location;lat;lon;timestamp;pressure;altitude;pressure_sealevel;temperature;humidity
12763;BME280;6445;52.490;13.378;2022-08-21T00:00:32;52230.03;;;-146.10;69.59
12763;BME280;6445;52.490;13.378;2022-08-21T00:03:01;52212.03;;;-146.10;69.66
12763;BME280;6445;52.490;13.378;2022-08-21T00:05:28;52230.03;;;-146.10;69.87
12763;BME280;6445;52.490;13.378;2022-08-21T00:07:54;52234.03;;;-146.10;70.19
12763;BME280;6445;52.490;13.378;2022-08-21T00:10:21;52228.03;;;-146.10;69.86
12763;BME280;6445;52.490;13.378;2022-08-21T00:12:47;52216.03;;;-146.10;69.63
12763;BME280;6445;52.490;13.378;2022-08-21T00:15:17;52236.03;;;-146.10;69.71
12763;BME280;6445;52.490;13.378;2022-08-21T00:17:43;52248.03;;;-146.10;69.45
12763;BME280;6445;52.490;13.378;2022-08-21T00:20:10;52226.03;;;-146.10;69.42
12763;BME280;6445;52.490;13.378;2022-08-21T00:22:36;52212.03;;;-146.10;69.12
12763;BME280;6445;52.490;13.378;2022-08-21T00:25:03;52210.03;;;-146.10;69.22
12763;BME280;6445;52.490;13.378;2022-08-21T00:27:29;52252.03;;;-146.10;68.98
12763;BME280;6445;52.490;13.378;2022-08-21T00:29:54;52230.03;;;-146.10;69.32
12763;BME280;6445;52.490;13.378;2022-08-21T00:32:25;52236.03;;;-146.10;69.51
12763;BME280;6445;52.490;13.378;2022-08-21T00:34:51;52218.03;;;-146.10;69.76
12763;BME280;6445;52.490;13.378;2022-08-21T00:37:17;52228.03;;;-146.10;69.67
12763;BME280;6445;52.490;13.378;2022-08-21T00:39:42;52228.03;;;-146.10;68.93
12763;BME280;6445;52.490;13.378;2022-08-21T00:42:09;52222.03;;;-146.10;68.55
12763;BME280;6445;52.490;13.378;2022-08-21T00:44:34;52232.03;;;-146.10;68.08
12763;BME280;6445;52.490;13.378;2022-08-21T00:46:59;52240.03;;;-146.10;68.92
12763;BME280;6445;52.490;13.378;2022-08-21T00:49:25;52228.03;;;-146.10;68.95
12763;BME280;6445;52.490;13.378;2022-08-21T00:51:54;52234.03;;;-146.10;68.58
12763;BME280;6445;52.490;13.378;2022-08-21T00:54:22;52200.03;;;-146.10;68.65
12763;BME280;6445;52.490;13.378;2022-08-21T00:56:53;52210.03;;;-146.10;68.95
12763;BME280;6445;52.490;13.378;2022-08-21T00:59:20;52206.03;;;-146.10;69.30
12763;BME280;6445;52.490;13.378;2022-08-21T01:01:47;52210.03;;;-146.10;70.31
12763;BME280;6445;52.490;13.378;2022-08-21T01:04:13;52196.03;;;-146.10;70.45
12763;BME280;6445;52.490;13.378;2022-08-21T01:06:38;52188.03;;;-146.10;71.14
12763;BME280;6445;52.490;13.378;2022-08-21T01:09:04;52206.03;;;-146.10;71.51
12763;BME280;6445;52.490;13.378;2022-08-21T01:11:30;52190.03;;;-146.10;71.42
12763;BME280;6445;52.490;13.378;2022-08-21T01:13:55;52204.03;;;-146.10;71.75
12763;BME280;6445;52.490;13.378;2022-08-21T01:16:21;52202.03;;;-146.10;71.73
12763;BME280;6445;52.490;13.378;2022-08-21T01:18:48;52218.03;;;-146.10;71.76
12763;BME280;6445;52.490;13.378;2022-08-21T01:21:18;52216.03;;;-146.10;71.69
12763;BME280;6445;52.490;13.378;2022-08-21T01:23:45;52214.03;;;-146.10;71.94
12763;BME280;6445;52.490;13.378;2022-08-21T01:26:13;52208.03;;;-146.10;72.05
12763;BME280;6445;52.490;13.378;2022-08-21T01:28:47;52200.03;;;-146.10;71.76
12763;BME280;6445;52.490;13.378;2022-08-21T01:31:15;52212.03;;;-146.10;71.62
12763;BME280;6445;52.490;13.378;2022-08-21T01:33:42;52210.03;;;-146.10;71.90
12763;BME280;6445;52.490;13.378;2022-08-21T01:36:07;52210.03;;;-146.10;72.58
12763;BME280;6445;52.490;13.378;2022-08-21T01:38:33;52194.03;;;-146.10;72.38
12763;BME280;6445;52.490;13.378;2022-08-21T01:40:58;52188.03;;;-146.10;73.20
12763;BME280;6445;52.490;13.378;2022-08-21T01:43:23;52192.03;;;-146.10;73.47
12763;BME280;6445;52.490;13.378;2022-08-21T01:45:49;52172.00;;;-146.10;73.41
12763;BME280;6445;52.490;13.378;2022-08-21T01:48:14;52202.03;;;-146.10;72.74
12763;BME280;6445;52.490;13.378;2022-08-21T01:50:40;52196.03;;;-146.10;71.94
12763;BME280;6445;52.490;13.378;2022-08-21T01:53:05;52170.00;;;-146.10;71.49
12763;BME280;6445;52.490;13.378;2022-08-21T01:55:30;52184.03;;;-146.10;71.41
12763;BME280;6445;52.490;13.378;2022-08-21T01:57:57;52218.03;;;-146.10;70.74
12763;BME280;6445;52.490;13.378;2022-08-21T02:00:23;52172.00;;;-146.10;69.83
12763;BME280;6445;52.490;13.378;2022-08-21T02:02:49;52174.00;;;-146.10;69.04
12763;BME280;6445;52.490;13.378;2022-08-21T02:05:14;52170.00;;;-146.10;68.88
12763;BME280;6445;52.490;13.378;2022-08-21T02:07:43;52172.00;;;-146.10;69.07
12763;BME280;6445;52.490;13.378;2022-08-21T02:10:11;52188.03;;;-146.10;68.27
12763;BME280;6445;52.490;13.378;2022-08-21T02:12:36;52190.03;;;-146.10;68.47
12763;BME280;6445;52.490;13.378;2022-08-21T02:15:03;52162.00;;;-146.10;68.31
12763;BME280;6445;52.490;13.378;2022-08-21T02:17:37;52184.03;;;-146.10;67.62
12763;BME280;6445;52.490;13.378;2022-08-21T02:20:03;52156.00;;;-146.10;67.37
12763;BME280;6445;52.490;13.378;2022-08-21T02:22:28;52188.03;;;-146.10;67.11
12763;BME280;6445;52.490;13.378;2022-08-21T02:24:54;52192.03;;;-146.10;67.10
12763;BME280;6445;52.490;13.378;2022-08-21T02:27:19;52190.03;;;-146.10;66.55
12763;BME280;6445;52.490;13.378;2022-08-21T02:29:44;52188.03;;;-146.10;66.28
12763;BME280;6445;52.490;13.378;2022-08-21T02:32:09;52166.00;;;-146.10;66.26
12763;BME280;6445;52.490;13.378;2022-08-21T02:34:35;52158.00;;;-146.10;66.64
12763;BME280;6445;52.490;13.378;2022-08-21T02:37:00;52168.00;;;-146.10;66.45
12763;BME280;6445;52.490;13.378;2022-08-21T02:39:25;52166.00;;;-146.10;66.45
12763;BME280;6445;52.490;13.378;2022-08-21T02:41:50;52172.00;;;-146.10;66.67
12763;BME280;6445;52.490;13.378;2022-08-21T02:44:16;52158.00;;;-146.10;66.64
12763;BME280;6445;52.490;13.378;2022-08-21T02:46:41;52144.00;;;-146.10;66.61
12763;BME280;6445;52.490;13.378;2022-08-21T02:49:06;52172.00;;;-146.10;66.19
12763;BME280;6445;52.490;13.378;2022-08-21T02:51:31;52154.00;;;-146.10;66.01
12763;BME280;6445;52.490;13.378;2022-08-21T02:53:57;52172.00;;;-146.10;66.81
12763;BME280;6445;52.490;13.378;2022-08-21T02:56:22;52158.00;;;-146.10;66.96
12763;BME280;6445;52.490;13.378;2022-08-21T02:58:51;52166.00;;;-146.10;66.76
12763;BME280;6445;52.490;13.378;2022-08-21T03:01:18;52158.00;;;-146.10;66.94
12763;BME280;6445;52.490;13.378;2022-08-21T03:03:46;52174.00;;;-146.10;67.44
12763;BME280;6445;52.490;13.378;2022-08-21T03:06:15;52170.00;;;-146.10;67.84
12763;BME280;6445;52.490;13.378;2022-08-21T03:08:41;52160.00;;;-146.10;67.05
12763;BME280;6445;52.490;13.378;2022-08-21T03:11:06;52160.00;;;-146.10;67.29
12763;BME280;6445;52.490;13.378;2022-08-21T03:13:32;52160.00;;;-146.10;67.58
12763;BME280;6445;52.490;13.378;2022-08-21T03:15:58;52140.00;;;-146.10;67.54
12763;BME280;6445;52.490;13.378;2022-08-21T03:18:23;52144.00;;;-146.10;67.65
12763;BME280;6445;52.490;13.378;2022-08-21T03:20:49;52160.00;;;-146.10;67.71
12763;BME280;6445;52.490;13.378;2022-08-21T03:23:15;52140.00;;;-146.10;67.75
12763;BME280;6445;52.490;13.378;2022-08-21T03:25:41;52156.00;;;-146.10;67.32
12763;BME280;6445;52.490;13.378;2022-08-21T03:28:12;52160.00;;;-146.10;67.35
12763;BME280;6445;52.490;13.378;2022-08-21T03:30:40;52132.00;;;-146.10;67.17
12763;BME280;6445;52.490;13.378;2022-08-21T03:33:05;52148.00;;;-146.10;67.26
12763;BME280;6445;52.490;13.378;2022-08-21T03:35:31;52140.00;;;-146.10;66.83
12763;BME280;6445;52.490;13.378;2022-08-21T03:37:56;52168.00;;;-146.10;66.60
12763;BME280;6445;52.490;13.378;2022-08-21T03:40:22;52140.00;;;-146.10;66.84
12763;BME280;6445;52.490;13.378;2022-08-21T03:42:49;52158.00;;;-146.10;66.48
12763;BME280;6445;52.490;13.378;2022-08-21T03:45:16;52162.00;;;-146.10;66.23
12763;BME280;6445;52.490;13.378;2022-08-21T03:47:59;52116.00;;;-146.10;66.53
12763;BME280;6445;52.490;13.378;2022-08-21T03:50:28;52138.00;;;-146.10;66.42
12763;BME280;6445;52.490;13.378;2022-08-21T03:52:54;52136.00;;;-146.10;66.67
12763;BME280;6445;52.490;13.378;2022-08-21T03:55:19;52144.00;;;-146.10;65.60
12763;BME280;6445;52.490;13.378;2022-08-21T03:57:44;52138.00;;;-146.10;65.63
12763;BME280;6445;52.490;13.378;2022-08-21T04:00:11;52124.00;;;-146.10;66.07
12763;BME280;6445;52.490;13.378;2022-08-21T04:02:38;52138.00;;;-146.10;65.73
12763;BME280;6445;52.490;13.378;2022-08-21T04:05:04;52146.00;;;-146.10;65.86
12763;BME280;6445;52.490;13.378;2022-08-21T04:07:29;52136.00;;;-146.10;65.20
12763;BME280;6445;52.490;13.378;2022-08-21T04:09:54;52146.00;;;-146.10;65.17
12763;BME280;6445;52.490;13.378;2022-08-21T04:12:20;52138.00;;;-146.10;65.51
12763;BME280;6445;52.490;13.378;2022-08-21T04:14:45;52144.00;;;-146.10;65.49
12763;BME280;6445;52.490;13.378;2022-08-21T04:17:11;52122.00;;;-146.10;65.43
12763;BME280;6445;52.490;13.378;2022-08-21T04:19:36;52134.00;;;-146.10;65.77
12763;BME280;6445;52.490;13.378;2022-08-21T04:22:01;52132.00;;;-146.10;65.36
12763;BME280;6445;52.490;13.378;2022-08-21T04:24:27;52150.00;;;-146.10;65.16
12763;BME280;6445;52.490;13.378;2022-08-21T04:26:52;52134.00;;;-146.10;64.83
12763;BME280;6445;52.490;13.378;2022-08-21T04:29:17;52140.00;;;-146.10;64.76
12763;BME280;6445;52.490;13.378;2022-08-21T04:31:42;52124.00;;;-146.10;65.16
12763;BME280;6445;52.490;13.378;2022-08-21T04:34:09;52132.00;;;-146.10;64.56
12763;BME280;6445;52.490;13.378;2022-08-21T04:36:34;52138.00;;;-146.10;64.26
12763;BME280;6445;52.490;13.378;2022-08-21T04:38:59;52132.00;;;-146.10;64.15
12763;BME280;6445;52.490;13.378;2022-08-21T04:41:25;52138.00;;;-146.10;64.42
12763;BME280;6445;52.490;13.378;2022-08-21T04:43:50;52144.00;;;-146.10;64.06
12763;BME280;6445;52.490;13.378;2022-08-21T04:46:15;52130.00;;;-146.10;63.71
12763;BME280;6445;52.490;13.378;2022-08-21T04:48:41;52146.00;;;-146.10;63.25
12763;BME280;6445;52.490;13.378;2022-08-21T04:51:13;52132.00;;;-146.10;63.28
12763;BME280;6445;52.490;13.378;2022-08-21T04:54:06;52132.00;;;-146.10;63.17
12763;BME280;6445;52.490;13.378;2022-08-21T04:56:39;52134.00;;;-146.10;63.12
12763;BME280;6445;52.490;13.378;2022-08-21T04:59:15;52150.00;;;-146.10;63.13
12763;BME280;6445;52.490;13.378;2022-08-21T05:01:43;52138.00;;;-146.10;62.99
12763;BME280;6445;52.490;13.378;2022-08-21T05:04:12;52140.00;;;-146.10;62.67
12763;BME280;6445;52.490;13.378;2022-08-21T05:06:40;52160.00;;;-146.10;61.45
12763;BME280;6445;52.490;13.378;2022-08-21T05:09:07;52168.00;;;-146.10;61.88
12763;BME280;6445;52.490;13.378;2022-08-21T05:11:34;52148.00;;;-146.10;62.58
12763;BME280;6445;52.490;13.378;2022-08-21T05:14:00;52144.00;;;-146.10;62.31
12763;BME280;6445;52.490;13.378;2022-08-21T05:16:26;52146.00;;;-146.10;61.84
12763;BME280;6445;52.490;13.378;2022-08-21T05:18:51;52168.00;;;-146.10;61.32
12763;BME280;6445;52.490;13.378;2022-08-21T05:21:17;52178.00;;;-146.10;61.51
12763;BME280;6445;52.490;13.378;2022-08-21T05:23:42;52148.00;;;-146.10;61.63
12763;BME280;6445;52.490;13.378;2022-08-21T05:26:07;52162.00;;;-146.10;61.92
12763;BME280;6445;52.490;13.378;2022-08-21T05:28:33;52152.00;;;-146.10;61.94
12763;BME280;6445;52.490;13.378;2022-08-21T05:30:58;52184.03;;;-146.10;61.85
12763;BME280;6445;52.490;13.378;2022-08-21T05:33:23;52164.00;;;-146.10;61.61
12763;BME280;6445;52.490;13.378;2022-08-21T05:35:51;52146.00;;;-146.10;62.01
12763;BME280;6445;52.490;13.378;2022-08-21T05:38:17;52164.00;;;-146.10;61.83
12763;BME280;6445;52.490;13.378;2022-08-21T05:40:42;52146.00;;;-146.10;61.08
12763;BME280;6445;52.490;13.378;2022-08-21T05:43:09;52160.00;;;-146.10;61.77
12763;BME280;6445;52.490;13.378;2022-08-21T05:45:34;52194.03;;;-146.10;60.95
12763;BME280;6445;52.490;13.378;2022-08-21T05:48:13;52188.03;;;-146.10;61.29
12763;BME280;6445;52.490;13.378;2022-08-21T05:50:38;52164.00;;;-146.10;60.73
12763;BME280;6445;52.490;13.378;2022-08-21T05:53:05;52196.03;;;-146.10;60.38
12763;BME280;6445;52.490;13.378;2022-08-21T05:55:30;52178.00;;;-146.10;60.88
12763;BME280;6445;52.490;13.378;2022-08-21T05:57:56;52168.00;;;-146.10;60.31
12763;BME280;6445;52.490;13.378;2022-08-21T06:00:21;52186.03;;;-146.10;60.28
12763;BME280;6445;52.490;13.378;2022-08-21T06:02:48;52188.03;;;-146.10;60.56
12763;BME280;6445;52.490;13.378;2022-08-21T06:05:14;52166.00;;;-146.10;60.21
12763;BME280;6445;52.490;13.378;2022-08-21T06:07:40;52176.00;;;-146.10;59.63
12763;BME280;6445;52.490;13.378;2022-08-21T06:10:05;52172.00;;;-146.10;59.81
12763;BME280;6445;52.490;13.378;2022-08-21T06:12:31;52172.00;;;-146.10;59.57
12763;BME280;6445;52.490;13.378;2022-08-21T06:14:57;52164.00;;;-146.10;59.27
12763;BME280;6445;52.490;13.378;2022-08-21T06:17:22;52196.03;;;-146.10;58.15
12763;BME280;6445;52.490;13.378;2022-08-21T06:19:52;52184.03;;;-146.10;58.19
12763;BME280;6445;52.490;13.378;2022-08-21T06:22:17;52184.03;;;-146.10;57.87
12763;BME280;6445;52.490;13.378;2022-08-21T06:24:42;52210.03;;;-146.10;58.14
12763;BME280;6445;52.490;13.378;2022-08-21T06:27:08;52198.03;;;-146.10;58.10
12763;BME280;6445;52.490;13.378;2022-08-21T06:29:34;52220.03;;;-146.10;57.12
12763;BME280;6445;52.490;13.378;2022-08-21T06:32:00;52198.03;;;-146.10;57.94
12763;BME280;6445;52.490;13.378;2022-08-21T06:34:26;52216.03;;;-146.10;57.28
12763;BME280;6445;52.490;13.378;2022-08-21T06:36:51;52220.03;;;-146.10;57.00
12763;BME280;6445;52.490;13.378;2022-08-21T06:39:16;52224.03;;;-146.10;56.22
12763;BME280;6445;52.490;13.378;2022-08-21T06:41:42;52232.03;;;-146.10;55.93
12763;BME280;6445;52.490;13.378;2022-08-21T06:44:07;52244.03;;;-146.10;55.61
12763;BME280;6445;52.490;13.378;2022-08-21T06:46:32;52240.03;;;-146.10;55.74
12763;BME280;6445;52.490;13.378;2022-08-21T06:48:59;52252.03;;;-146.10;55.27
12763;BME280;6445;52.490;13.378;2022-08-21T06:51:24;52262.03;;;-146.10;54.78
12763;BME280;6445;52.490;13.378;2022-08-21T06:53:53;52270.03;;;-146.10;54.23
12763;BME280;6445;52.490;13.378;2022-08-21T06:56:19;52300.06;;;-146.10;52.54
12763;BME280;6445;52.490;13.378;2022-08-21T06:58:45;52260.03;;;-146.10;52.74
12763;BME280;6445;52.490;13.378;2022-08-21T07:01:10;52320.06;;;-146.10;51.84
12763;BME280;6445;52.490;13.378;2022-08-21T07:03:39;52302.06;;;-146.10;51.68
12763;BME280;6445;52.490;13.378;2022-08-21T07:06:06;52326.06;;;-146.10;50.11
12763;BME280;6445;52.490;13.378;2022-08-21T07:08:31;52346.06;;;-146.10;49.59
12763;BME280;6445;52.490;13.378;2022-08-21T07:10:59;52362.06;;;-146.10;48.68
12763;BME280;6445;52.490;13.378;2022-08-21T07:13:24;52402.09;;;-146.10;47.10
12763;BME280;6445;52.490;13.378;2022-08-21T07:15:50;52452.09;;;-146.10;46.24
12763;BME280;6445;52.490;13.378;2022-08-21T07:18:16;52444.09;;;-146.10;45.36
12763;BME280;6445;52.490;13.378;2022-08-21T07:20:41;52454.09;;;-146.10;44.85
12763;BME280;6445;52.490;13.378;2022-08-21T07:23:22;52480.13;;;-146.10;44.43
12763;BME280;6445;52.490;13.378;2022-08-21T07:25:50;52478.13;;;-146.10;43.98
12763;BME280;6445;52.490;13.378;2022-08-21T07:28:16;52488.13;;;-146.10;43.45
12763;BME280;6445;52.490;13.378;2022-08-21T07:30:41;52502.13;;;-146.10;43.32
12763;BME280;6445;52.490;13.378;2022-08-21T07:33:06;52506.13;;;-146.10;42.77
12763;BME280;6445;52.490;13.378;2022-08-21T07:35:32;52504.13;;;-146.10;42.39
12763;BME280;6445;52.490;13.378;2022-08-21T07:37:58;52506.13;;;-146.10;42.43
12763;BME280;6445;52.490;13.378;2022-08-21T07:40:23;52538.13;;;-146.10;42.34
12763;BME280;6445;52.490;13.378;2022-08-21T07:42:49;52536.13;;;-146.10;41.58
12763;BME280;6445;52.490;13.378;2022-08-21T07:45:18;52594.16;;;-146.10;39.89
12763;BME280;6445;52.490;13.378;2022-08-21T07:47:43;52580.16;;;-146.10;40.23
12763;BME280;6445;52.490;13.378;2022-08-21T07:50:11;52590.16;;;-146.10;39.65
12763;BME280;6445;52.490;13.378;2022-08-21T07:52:36;52630.16;;;-146.10;39.34
12763;BME280;6445;52.490;13.378;2022-08-21T07:55:02;52648.19;;;-146.10;38.06
12763;BME280;6445;52.490;13.378;2022-08-21T07:57:27;52638.19;;;-146.10;37.91
12763;BME280;6445;52.490;13.378;2022-08-21T07:59:52;52608.16;;;-146.10;37.96
12763;BME280;6445;52.490;13.378;2022-08-21T08:02:24;52592.16;;;-146.10;37.53
12763;BME280;6445;52.490;13.378;2022-08-21T08:04:49;52630.16;;;-146.10;36.29
12763;BME280;6445;52.490;13.378;2022-08-21T08:07:15;52604.16;;;-146.10;37.48
12763;BME280;6445;52.490;13.378;2022-08-21T08:09:40;52682.19;;;-146.10;36.35
12763;BME280;6445;52.490;13.378;2022-08-21T08:12:06;52590.16;;;-146.10;36.63
12763;BME280;6445;52.490;13.378;2022-08-21T08:14:31;52620.16;;;-146.10;36.84
12763;BME280;6445;52.490;13.378;2022-08-21T08:16:57;52674.19;;;-146.10;35.70
12763;BME280;6445;52.490;13.378;2022-08-21T08:19:22;52706.22;;;-146.10;34.64
12763;BME280;6445;52.490;13.378;2022-08-21T08:21:47;52712.22;;;-146.10;34.46
12763;BME280;6445;52.490;13.378;2022-08-21T08:24:13;52814.25;;;-146.10;33.69
12763;BME280;6445;52.490;13.378;2022-08-21T08:26:38;52866.28;;;-146.10;32.94
12763;BME280;6445;52.490;13.378;2022-08-21T08:29:03;52926.31;;;-146.10;32.19
12763;BME280;6445;52.490;13.378;2022-08-21T08:31:28;53004.34;;;-146.10;31.16
12763;BME280;6445;52.490;13.378;2022-08-21T08:33:54;52798.25;;;-146.10;32.74
12763;BME280;6445;52.490;13.378;2022-08-21T08:36:19;52782.25;;;-146.10;32.41
12763;BME280;6445;52.490;13.378;2022-08-21T08:38:46;52664.19;;;-146.10;33.48
12763;BME280;6445;52.490;13.378;2022-08-21T08:41:13;52706.22;;;-146.10;33.40
12763;BME280;6445;52.490;13.378;2022-08-21T08:43:41;52656.19;;;-146.10;33.24
12763;BME280;6445;52.490;13.378;2022-08-21T08:46:13;52636.19;;;-146.10;34.61
12763;BME280;6445;52.490;13.378;2022-08-21T08:48:54;52652.19;;;-146.10;33.58
12763;BME280;6445;52.490;13.378;2022-08-21T08:51:39;52592.16;;;-146.10;34.77
12763;BME280;6445;52.490;13.378;2022-08-21T08:54:11;52566.16;;;-146.10;35.11
12763;BME280;6445;52.490;13.378;2022-08-21T08:56:38;52552.16;;;-146.10;35.52
12763;BME280;6445;52.490;13.378;2022-08-21T08:59:15;52508.13;;;-146.10;36.07
12763;BME280;6445;52.490;13.378;2022-08-21T09:01:40;52540.13;;;-146.10;36.59
12763;BME280;6445;52.490;13.378;2022-08-21T09:04:06;52518.13;;;-146.10;36.65
12763;BME280;6445;52.490;13.378;2022-08-21T09:06:35;52574.16;;;-146.10;36.18
12763;BME280;6445;52.490;13.378;2022-08-21T09:09:10;52546.13;;;-146.10;37.03
12763;BME280;6445;52.490;13.378;2022-08-21T09:12:15;52574.16;;;-146.10;36.39
12763;BME280;6445;52.490;13.378;2022-08-21T09:17:23;52518.13;;;-146.10;36.85
12763;BME280;6445;52.490;13.378;2022-08-21T09:20:03;52514.13;;;-146.10;36.68
12763;BME280;6445;52.490;13.378;2022-08-21T09:22:59;52554.16;;;-146.10;36.09
12763;BME280;6445;52.490;13.378;2022-08-21T09:26:00;52506.13;;;-146.10;36.56
12763;BME280;6445;52.490;13.378;2022-08-21T09:28:23;52446.09;;;-146.10;36.87
12763;BME280;6445;52.490;13.378;2022-08-21T09:30:50;52458.09;;;-146.10;36.91
12763;BME280;6445;52.490;13.378;2022-08-21T09:33:16;52480.13;;;-146.10;37.41
12763;BME280;6445;52.490;13.378;2022-08-21T09:35:54;52460.09;;;-146.10;38.18
12763;BME280;6445;52.490;13.378;2022-08-21T09:41:07;52484.13;;;-146.10;37.44
12763;BME280;6445;52.490;13.378;2022-08-21T09:43:34;52458.09;;;-146.10;36.69
12763;BME280;6445;52.490;13.378;2022-08-21T09:46:09;52464.09;;;-146.10;37.17
12763;BME280;6445;52.490;13.378;2022-08-21T09:48:49;52514.13;;;-146.10;36.54
12763;BME280;6445;52.490;13.378;2022-08-21T09:51:35;52522.13;;;-146.10;36.74
12763;BME280;6445;52.490;13.378;2022-08-21T09:56:37;52546.13;;;-146.10;35.54
12763;BME280;6445;52.490;13.378;2022-08-21T09:59:28;52556.16;;;-146.10;35.03
12763;BME280;6445;52.490;13.378;2022-08-21T10:01:56;52548.13;;;-146.10;34.39
12763;BME280;6445;52.490;13.378;2022-08-21T10:04:26;52590.16;;;-146.10;34.58
12763;BME280;6445;52.490;13.378;2022-08-21T10:06:52;52612.16;;;-146.10;34.32
12763;BME280;6445;52.490;13.378;2022-08-21T10:09:19;52602.16;;;-146.10;34.31
12763;BME280;6445;52.490;13.378;2022-08-21T10:14:35;52652.19;;;-146.10;34.16
12763;BME280;6445;52.490;13.378;2022-08-21T10:17:34;52570.16;;;-146.10;34.68
12763;BME280;6445;52.490;13.378;2022-08-21T10:20:14;52558.16;;;-146.10;33.75
12763;BME280;6445;52.490;13.378;2022-08-21T10:22:55;52562.16;;;-146.10;34.50
12763;BME280;6445;52.490;13.378;2022-08-21T10:25:56;52578.16;;;-146.10;33.26
12763;BME280;6445;52.490;13.378;2022-08-21T10:31:29;52596.16;;;-146.10;32.94
12763;BME280;6445;52.490;13.378;2022-08-21T10:36:52;52654.19;;;-146.10;32.45
12763;BME280;6445;52.490;13.378;2022-08-21T10:39:32;52658.19;;;-146.10;32.53
12763;BME280;6445;52.490;13.378;2022-08-21T10:42:17;52622.16;;;-146.10;32.76
12763;BME280;6445;52.490;13.378;2022-08-21T10:45:00;52622.16;;;-146.10;32.54
12763;BME280;6445;52.490;13.378;2022-08-21T10:47:44;52626.16;;;-146.10;32.79
12763;BME280;6445;52.490;13.378;2022-08-21T10:50:19;52654.19;;;-146.10;31.88
12763;BME280;6445;52.490;13.378;2022-08-21T10:55:50;52584.16;;;-146.10;33.07
12763;BME280;6445;52.490;13.378;2022-08-21T10:58:26;52586.16;;;-146.10;33.20
12763;BME280;6445;52.490;13.378;2022-08-21T11:01:00;52620.16;;;-146.10;33.77
12763;BME280;6445;52.490;13.378;2022-08-21T11:03:41;52622.16;;;-146.10;33.56
12763;BME280;6445;52.490;13.378;2022-08-21T11:06:19;52588.16;;;-146.10;34.00
12763;BME280;6445;52.490;13.378;2022-08-21T11:08:50;52702.19;;;-146.10;32.49
12763;BME280;6445;52.490;13.378;2022-08-21T11:11:47;52714.22;;;-146.10;31.46
12763;BME280;6445;52.490;13.378;2022-08-21T11:14:25;52728.22;;;-146.10;30.31
12763;BME280;6445;52.490;13.378;2022-08-21T11:17:16;52794.25;;;-146.10;30.15
12763;BME280;6445;52.490;13.378;2022-08-21T11:20:08;52750.22;;;-146.10;29.69
12763;BME280;6445;52.490;13.378;2022-08-21T11:22:41;52802.25;;;-146.10;29.90
12763;BME280;6445;52.490;13.378;2022-08-21T11:25:20;52764.22;;;-146.10;30.20
12763;BME280;6445;52.490;13.378;2022-08-21T11:28:01;52724.22;;;-146.10;30.08
12763;BME280;6445;52.490;13.378;2022-08-21T11:30:36;52736.22;;;-146.10;28.81
12763;BME280;6445;52.490;13.378;2022-08-21T11:36:02;52834.25;;;-146.10;28.29
12763;BME280;6445;52.490;13.378;2022-08-21T11:38:40;52798.25;;;-146.10;28.43
12763;BME280;6445;52.490;13.378;2022-08-21T11:41:17;52774.22;;;-146.10;28.44
12763;BME280;6445;52.490;13.378;2022-08-21T11:43:47;52694.19;;;-146.10;28.41
12763;BME280;6445;52.490;13.378;2022-08-21T11:49:27;52740.22;;;-146.10;28.17
12763;BME280;6445;52.490;13.378;2022-08-21T11:52:25;52780.25;;;-146.10;29.04
12763;BME280;6445;52.490;13.378;2022-08-21T11:55:00;52698.19;;;-146.10;29.92
12763;BME280;6445;52.490;13.378;2022-08-21T11:57:53;52724.22;;;-146.10;28.83
12763;BME280;6445;52.490;13.378;2022-08-21T12:00:30;52654.19;;;-146.10;30.03
12763;BME280;6445;52.490;13.378;2022-08-21T12:03:06;52726.22;;;-146.10;29.43
12763;BME280;6445;52.490;13.378;2022-08-21T12:05:36;52672.19;;;-146.10;29.56
12763;BME280;6445;52.490;13.378;2022-08-21T12:08:15;52720.22;;;-146.10;29.65
12763;BME280;6445;52.490;13.378;2022-08-21T12:11:20;52682.19;;;-146.10;29.47
12763;BME280;6445;52.490;13.378;2022-08-21T12:13:57;52640.19;;;-146.10;30.34
12763;BME280;6445;52.490;13.378;2022-08-21T12:16:35;52606.16;;;-146.10;30.27
12763;BME280;6445;52.490;13.378;2022-08-21T12:19:06;52664.19;;;-146.10;30.15
12763;BME280;6445;52.490;13.378;2022-08-21T12:21:32;52668.19;;;-146.10;29.97
12763;BME280;6445;52.490;13.378;2022-08-21T12:26:54;52714.22;;;-146.10;29.50
12763;BME280;6445;52.490;13.378;2022-08-21T12:29:48;52780.25;;;-146.10;28.53
12763;BME280;6445;52.490;13.378;2022-08-21T12:34:48;52712.22;;;-146.10;29.20
12763;BME280;6445;52.490;13.378;2022-08-21T12:37:22;52708.22;;;-146.10;28.70
12763;BME280;6445;52.490;13.378;2022-08-21T12:39:52;52722.22;;;-146.10;28.38
12763;BME280;6445;52.490;13.378;2022-08-21T12:42:27;52712.22;;;-146.10;28.94
12763;BME280;6445;52.490;13.378;2022-08-21T12:44:56;52692.19;;;-146.10;29.35
12763;BME280;6445;52.490;13.378;2022-08-21T12:47:33;52656.19;;;-146.10;28.90
12763;BME280;6445;52.490;13.378;2022-08-21T12:50:17;52692.19;;;-146.10;29.21
12763;BME280;6445;52.490;13.378;2022-08-21T12:52:51;52674.19;;;-146.10;29.57
12763;BME280;6445;52.490;13.378;2022-08-21T12:55:27;52640.19;;;-146.10;30.01
12763;BME280;6445;52.490;13.378;2022-08-21T12:57:52;52668.19;;;-146.10;29.59
12763;BME280;6445;52.490;13.378;2022-08-21T13:00:22;52716.22;;;-146.10;29.36
12763;BME280;6445;52.490;13.378;2022-08-21T13:02:49;52700.19;;;-146.10;29.18
12763;BME280;6445;52.490;13.378;2022-08-21T13:05:34;52690.19;;;-146.10;29.99
12763;BME280;6445;52.490;13.378;2022-08-21T13:08:05;52652.19;;;-146.10;29.82
12763;BME280;6445;52.490;13.378;2022-08-21T13:10:32;52666.19;;;-146.10;30.14
12763;BME280;6445;52.490;13.378;2022-08-21T13:13:04;52682.19;;;-146.10;29.66
12763;BME280;6445;52.490;13.378;2022-08-21T13:15:35;52664.19;;;-146.10;29.90
12763;BME280;6445;52.490;13.378;2022-08-21T13:18:03;52622.16;;;-146.10;30.45
12763;BME280;6445;52.490;13.378;2022-08-21T13:20:32;52620.16;;;-146.10;30.67
12763;BME280;6445;52.490;13.378;2022-08-21T13:23:00;52660.19;;;-146.10;30.46